createdAt,value
2018-08-04T00:00:56.924Z,90.46
2018-08-04T00:01:56.820Z,90.26
2018-08-04T00:02:56.729Z,90.65
2018-08-04T00:03:56.644Z,90.46
2018-08-04T00:04:56.583Z,90.26
2018-08-04T00:05:56.473Z,90.80
2018-08-04T00:06:56.387Z,91.19
2018-08-04T00:07:56.301Z,90.90
2018-08-04T00:08:56.219Z,90.70
2018-08-04T00:09:56.134Z,90.80
2018-08-04T00:10:56.069Z,90.70
2018-08-04T00:11:55.975Z,90.65
2018-08-04T00:12:55.875Z,91.09
2018-08-04T00:13:55.788Z,91.48
2018-08-04T00:14:55.708Z,91.77
2018-08-04T00:15:55.642Z,92.00
2018-08-04T00:16:55.534Z,92.16
2018-08-04T00:17:55.445Z,92.83
2018-08-04T00:18:55.365Z,92.93
2018-08-04T00:19:55.278Z,92.35
2018-08-04T00:20:55.214Z,92.74
2018-08-04T00:21:55.107Z,93.12
2018-08-04T00:22:55.023Z,92.93
2018-08-04T00:23:54.938Z,92.83
2018-08-04T00:24:54.852Z,93.51
2018-08-04T00:25:54.788Z,93.41
2018-08-04T00:26:54.677Z,93.22
2018-08-04T00:27:54.592Z,93.80
2018-08-04T00:28:54.506Z,93.51
2018-08-04T00:29:54.423Z,93.80
2018-08-04T00:30:54.356Z,94.38
2018-08-04T00:31:54.252Z,93.95
2018-08-04T00:32:54.166Z,94.82
2018-08-04T00:33:54.081Z,94.53
2018-08-04T00:34:53.996Z,95.49
2018-08-04T00:35:53.933Z,95.40
2018-08-04T00:36:53.822Z,95.59
2018-08-04T00:37:53.737Z,95.83
2018-08-04T00:38:53.650Z,96.22
2018-08-04T00:39:53.567Z,97.28
2018-08-04T00:40:53.504Z,97.19
2018-08-04T00:41:53.395Z,98.00
2018-08-04T00:42:53.311Z,98.49
2018-08-04T00:43:53.227Z,98.30
2018-08-04T00:44:53.149Z,99.88
2018-08-04T00:45:53.073Z,99.99
2018-08-04T00:46:53.059Z,99.99
2018-08-04T00:47:52.881Z,99.99
2018-08-04T00:48:52.796Z,99.99
2018-08-04T00:49:52.710Z,99.99
2018-08-04T00:50:52.648Z,99.99
2018-08-04T00:51:52.540Z,99.99
2018-08-04T00:52:52.454Z,99.99
2018-08-04T00:53:52.460Z,99.99
2018-08-04T00:54:52.283Z,99.99
2018-08-04T00:55:52.220Z,99.99
2018-08-04T00:56:52.111Z,99.60
2018-08-04T00:57:52.023Z,99.99
2018-08-04T00:58:51.936Z,99.40
2018-08-04T00:59:51.855Z,98.92
2018-08-04T01:00:51.866Z,98.34
2018-08-04T01:01:51.706Z,98.15
2018-08-04T01:02:51.595Z,99.11
2018-08-04T01:03:51.512Z,98.92
2018-08-04T01:04:51.424Z,99.65
2018-08-04T01:05:51.336Z,99.99
2018-08-04T01:06:51.274Z,99.74
2018-08-04T01:07:51.282Z,99.99
2018-08-04T01:08:51.081Z,99.99
2018-08-04T01:09:50.998Z,99.99
2018-08-04T01:10:50.908Z,99.99
2018-08-04T01:11:50.842Z,99.99
2018-08-04T01:12:50.739Z,99.99
2018-08-04T01:13:50.651Z,99.99
2018-08-04T01:14:50.660Z,99.99
2018-08-04T01:15:50.480Z,99.99
2018-08-04T01:16:50.414Z,99.99
2018-08-04T01:17:50.307Z,99.99
2018-08-04T01:18:50.227Z,99.99
2018-08-04T01:19:50.137Z,99.99
2018-08-04T01:20:50.047Z,99.99
2018-08-04T01:21:50.078Z,99.99
2018-08-04T01:22:49.874Z,99.99
2018-08-04T01:23:49.788Z,99.99
2018-08-04T01:24:49.703Z,99.99
2018-08-04T01:25:49.617Z,99.99
2018-08-04T01:26:49.558Z,99.99
2018-08-04T01:27:49.443Z,99.99
2018-08-04T01:28:49.469Z,99.99
2018-08-04T01:29:49.269Z,99.99
2018-08-04T01:30:49.194Z,99.99
2018-08-04T01:31:49.118Z,99.99
2018-08-04T01:32:49.013Z,99.99
2018-08-04T01:33:48.923Z,99.99
2018-08-04T01:34:48.837Z,99.99
2018-08-04T01:35:48.845Z,99.99
2018-08-04T01:36:48.686Z,99.99
2018-08-04T01:37:48.579Z,99.99
2018-08-04T01:38:48.493Z,99.99
2018-08-04T01:39:48.422Z,99.99
2018-08-04T01:40:48.318Z,99.99
2018-08-04T01:41:48.236Z,99.99
2018-08-04T01:42:48.259Z,99.99
2018-08-04T01:43:48.058Z,99.99
2018-08-04T01:44:47.970Z,99.99
2018-08-04T01:45:47.884Z,99.99
2018-08-04T01:46:47.805Z,99.99
2018-08-04T01:47:47.735Z,99.99
2018-08-04T01:48:47.626Z,99.99
2018-08-04T01:49:47.635Z,99.99
2018-08-04T01:50:47.453Z,99.99
2018-08-04T01:51:47.364Z,99.99
2018-08-04T01:52:47.299Z,99.99
2018-08-04T01:53:47.280Z,99.99
2018-08-04T01:54:47.102Z,99.99
2018-08-04T01:55:47.018Z,99.99
2018-08-04T01:56:47.030Z,99.99
2018-08-04T01:57:46.866Z,99.99
2018-08-04T01:58:46.760Z,99.99
2018-08-04T01:59:46.668Z,99.99
2018-08-04T02:00:46.584Z,99.99
2018-08-04T02:01:46.503Z,99.99
2018-08-04T02:02:46.429Z,99.99
2018-08-04T02:03:46.418Z,99.99
2018-08-04T02:04:46.235Z,99.99
2018-08-04T02:05:46.149Z,99.99
2018-08-04T02:06:46.060Z,99.99
2018-08-04T02:07:45.997Z,99.99
2018-08-04T02:08:45.888Z,99.99
2018-08-04T02:09:45.799Z,99.99
2018-08-04T02:10:45.805Z,99.99
2018-08-04T02:11:45.626Z,99.99
2018-08-04T02:12:45.565Z,99.99
2018-08-04T02:13:45.455Z,99.99
2018-08-04T02:14:45.364Z,99.99
2018-08-04T02:15:45.283Z,99.99
2018-08-04T02:16:45.198Z,99.99
2018-08-04T02:17:45.129Z,99.99
2018-08-04T02:18:45.019Z,99.99
2018-08-04T02:19:44.932Z,99.99
2018-08-04T02:20:44.841Z,99.99
2018-08-04T02:21:44.755Z,99.99
2018-08-04T02:22:44.696Z,99.99
2018-08-04T02:23:44.585Z,99.99
2018-08-04T02:24:44.497Z,99.99
2018-08-04T02:25:44.412Z,99.99
2018-08-04T02:26:44.324Z,99.99
2018-08-04T02:27:44.237Z,99.99
2018-08-04T02:28:44.172Z,99.99
2018-08-04T02:29:44.060Z,99.99
2018-08-04T02:30:43.976Z,99.99
2018-08-04T02:31:43.891Z,99.99
2018-08-04T02:32:43.798Z,99.99
2018-08-04T02:33:43.733Z,99.99
2018-08-04T02:34:43.627Z,99.99
2018-08-04T02:35:43.542Z,99.99
2018-08-04T02:36:43.455Z,99.99
2018-08-04T02:37:43.364Z,99.99
2018-08-04T02:38:43.298Z,99.99
2018-08-04T02:39:43.191Z,99.99
2018-08-04T02:40:43.101Z,99.99
2018-08-04T02:41:43.016Z,99.99
2018-08-04T02:42:42.929Z,99.99
2018-08-04T02:43:42.864Z,99.99
2018-08-04T02:44:42.756Z,99.99
2018-08-04T02:45:42.673Z,99.99
2018-08-04T02:46:42.580Z,99.99
2018-08-04T02:47:42.495Z,99.99
2018-08-04T02:48:42.427Z,99.99
2018-08-04T02:49:42.324Z,99.99
2018-08-04T02:50:42.235Z,99.99
2018-08-04T02:51:42.144Z,99.99
2018-08-04T02:52:42.056Z,99.99
2018-08-04T02:53:41.992Z,99.99
2018-08-04T02:54:41.883Z,99.99
2018-08-04T02:55:41.797Z,99.99
2018-08-04T02:56:41.711Z,99.99
2018-08-04T02:57:41.620Z,99.99
2018-08-04T02:58:41.555Z,99.99
2018-08-04T02:59:41.446Z,99.99
2018-08-04T03:00:41.360Z,99.99
2018-08-04T03:01:41.271Z,99.99
2018-08-04T03:02:41.186Z,99.99
2018-08-04T03:03:41.120Z,99.99
2018-08-04T03:04:41.011Z,99.99
2018-08-04T03:05:40.925Z,99.99
2018-08-04T03:06:40.843Z,99.99
2018-08-04T03:07:40.749Z,99.99
2018-08-04T03:08:40.735Z,99.99
2018-08-04T03:09:40.574Z,99.99
2018-08-04T03:10:40.486Z,99.99
2018-08-04T03:11:40.398Z,99.99
2018-08-04T03:12:40.311Z,99.99
2018-08-04T03:13:40.224Z,99.99
2018-08-04T03:14:40.159Z,99.99
2018-08-04T03:15:40.046Z,99.99
2018-08-04T03:16:39.962Z,99.99
2018-08-04T03:17:39.897Z,99.99
2018-08-04T03:18:39.787Z,99.99
2018-08-04T03:19:39.718Z,99.99
2018-08-04T03:20:39.615Z,99.99
2018-08-04T03:21:39.524Z,99.99
2018-08-04T03:22:39.438Z,99.99
2018-08-04T03:23:39.351Z,99.99
2018-08-04T03:24:39.286Z,99.99
2018-08-04T03:25:39.174Z,99.99
2018-08-04T03:26:39.086Z,99.99
2018-08-04T03:27:38.997Z,99.99
2018-08-04T03:28:38.911Z,99.99
2018-08-04T03:29:38.850Z,99.99
2018-08-04T03:30:38.737Z,99.99
2018-08-04T03:31:38.649Z,99.99
2018-08-04T03:32:38.559Z,99.99
2018-08-04T03:33:38.473Z,99.99
2018-08-04T03:34:38.407Z,99.99
2018-08-04T03:35:38.302Z,99.99
2018-08-04T03:36:38.213Z,99.99
2018-08-04T03:37:38.124Z,99.99
2018-08-04T03:38:38.034Z,99.99
2018-08-04T03:39:37.973Z,99.99
2018-08-04T03:40:37.860Z,99.99
2018-08-04T03:41:37.771Z,99.99
2018-08-04T03:42:37.688Z,99.99
2018-08-04T03:43:37.602Z,99.99
2018-08-04T03:44:37.532Z,99.99
2018-08-04T03:45:37.422Z,99.99
2018-08-04T03:46:37.336Z,99.99
2018-08-04T03:47:37.248Z,99.99
2018-08-04T03:48:37.257Z,99.99
2018-08-04T03:49:37.097Z,99.99
2018-08-04T03:50:36.984Z,99.99
2018-08-04T03:51:36.901Z,99.99
2018-08-04T03:52:36.812Z,99.99
2018-08-04T03:53:36.720Z,99.99
2018-08-04T03:54:36.643Z,99.99
2018-08-04T03:55:36.669Z,99.99
2018-08-04T03:56:36.463Z,99.99
2018-08-04T03:57:36.375Z,99.99
2018-08-04T03:58:36.290Z,99.99
2018-08-04T03:59:36.206Z,99.99
2018-08-04T04:00:36.132Z,99.99
2018-08-04T04:01:36.024Z,99.99
2018-08-04T04:02:36.025Z,99.99
2018-08-04T04:03:35.851Z,99.99
2018-08-04T04:04:35.761Z,99.99
2018-08-04T04:05:35.694Z,99.99
2018-08-04T04:06:35.606Z,99.99
2018-08-04T04:07:35.499Z,99.99
2018-08-04T04:08:35.412Z,99.99
2018-08-04T04:09:35.417Z,99.99
2018-08-04T04:10:35.256Z,99.99
2018-08-04T04:11:35.149Z,99.99
2018-08-04T04:12:35.063Z,99.99
2018-08-04T04:13:34.974Z,99.99
2018-08-04T04:14:34.885Z,99.99
2018-08-04T04:15:34.821Z,99.99
2018-08-04T04:16:34.808Z,99.99
2018-08-04T04:17:34.621Z,99.99
2018-08-04T04:18:34.538Z,99.99
2018-08-04T04:19:34.449Z,99.99
2018-08-04T04:20:34.388Z,99.99
2018-08-04T04:21:34.274Z,99.99
2018-08-04T04:22:34.190Z,99.99
2018-08-04T04:23:34.200Z,99.99
2018-08-04T04:24:34.013Z,99.99
2018-08-04T04:25:33.954Z,99.99
2018-08-04T04:26:33.840Z,99.99
2018-08-04T04:27:33.753Z,99.99
2018-08-04T04:28:33.668Z,99.99
2018-08-04T04:29:33.577Z,99.99
2018-08-04T04:30:33.606Z,99.99
2018-08-04T04:31:33.404Z,99.99
2018-08-04T04:32:33.315Z,99.99
2018-08-04T04:33:33.230Z,99.99
2018-08-04T04:34:33.141Z,99.99
2018-08-04T04:35:33.086Z,99.99
2018-08-04T04:36:32.969Z,99.99
2018-08-04T04:37:32.976Z,99.99
2018-08-04T04:38:32.793Z,99.99
2018-08-04T04:39:32.709Z,99.99
2018-08-04T04:40:32.624Z,99.99
2018-08-04T04:41:32.599Z,99.99
2018-08-04T04:42:32.445Z,99.99
2018-08-04T04:43:32.386Z,99.99
2018-08-04T04:44:32.364Z,99.99
2018-08-04T04:45:32.187Z,99.99
2018-08-04T04:46:32.124Z,99.99
2018-08-04T04:47:32.016Z,99.99
2018-08-04T04:48:31.942Z,99.99
2018-08-04T04:49:31.840Z,99.99
2018-08-04T04:50:31.754Z,99.99
2018-08-04T04:51:31.789Z,99.99
2018-08-04T04:52:31.582Z,99.99
2018-08-04T04:53:31.495Z,99.99
2018-08-04T04:54:31.415Z,99.99
2018-08-04T04:55:31.397Z,99.99
2018-08-04T04:56:31.267Z,99.99
2018-08-04T04:57:31.247Z,99.99
2018-08-04T04:58:31.067Z,99.99
2018-08-04T04:59:30.984Z,99.99
2018-08-04T05:00:30.895Z,99.99
2018-08-04T05:01:30.831Z,99.99
2018-08-04T05:02:30.727Z,99.99
2018-08-04T05:03:30.641Z,99.99
2018-08-04T05:04:30.555Z,99.99
2018-08-04T05:05:30.469Z,99.99
2018-08-04T05:06:30.413Z,99.99
2018-08-04T05:07:30.298Z,99.99
2018-08-04T05:08:30.210Z,99.99
2018-08-04T05:09:30.130Z,99.99
2018-08-04T05:10:30.041Z,99.99
2018-08-04T05:11:29.981Z,99.99
2018-08-04T05:12:29.870Z,99.99
2018-08-04T05:13:29.790Z,99.99
2018-08-04T05:14:29.704Z,99.99
2018-08-04T05:15:29.617Z,99.99
2018-08-04T05:16:29.553Z,99.99
2018-08-04T05:17:29.449Z,99.99
2018-08-04T05:18:29.362Z,99.99
2018-08-04T05:19:29.279Z,99.99
2018-08-04T05:20:29.193Z,99.99
2018-08-04T05:21:29.140Z,99.99
2018-08-04T05:22:29.025Z,99.99
2018-08-04T05:23:28.944Z,99.99
2018-08-04T05:24:28.854Z,99.99
2018-08-04T05:25:28.772Z,99.99
2018-08-04T05:26:28.690Z,99.99
2018-08-04T05:27:28.628Z,99.99
2018-08-04T05:28:28.519Z,99.99
2018-08-04T05:29:28.432Z,99.99
2018-08-04T05:30:28.349Z,99.99
2018-08-04T05:31:28.271Z,99.99
2018-08-04T05:32:28.202Z,99.99
2018-08-04T05:33:28.092Z,99.99
2018-08-04T05:34:28.015Z,99.99
2018-08-04T05:35:27.928Z,99.99
2018-08-04T05:36:27.846Z,99.99
2018-08-04T05:37:27.841Z,99.99
2018-08-04T05:38:27.703Z,99.99
2018-08-04T05:39:27.590Z,99.99
2018-08-04T05:40:27.513Z,99.99
2018-08-04T05:41:27.421Z,99.99
2018-08-04T05:42:27.358Z,99.99
2018-08-04T05:43:27.282Z,99.99
2018-08-04T05:44:27.180Z,99.99
2018-08-04T05:45:27.089Z,99.99
2018-08-04T05:46:27.000Z,99.99
2018-08-04T05:47:26.937Z,99.99
2018-08-04T05:48:26.830Z,99.99
2018-08-04T05:49:26.751Z,99.99
2018-08-04T05:50:26.662Z,99.99
2018-08-04T05:51:26.580Z,99.99
2018-08-04T05:52:26.517Z,99.99
2018-08-04T05:53:26.415Z,99.99
2018-08-04T05:54:26.329Z,99.99
2018-08-04T05:55:26.247Z,99.99
2018-08-04T05:56:26.161Z,99.99
2018-08-04T05:57:26.097Z,99.99
2018-08-04T05:58:25.992Z,99.99
2018-08-04T05:59:25.917Z,99.99
2018-08-04T06:00:25.822Z,99.99
2018-08-04T06:01:25.741Z,99.99
2018-08-04T06:02:25.685Z,99.99
2018-08-04T06:03:25.638Z,99.99
2018-08-04T06:04:25.487Z,99.99
2018-08-04T06:05:25.402Z,99.99
2018-08-04T06:06:25.316Z,99.99
2018-08-04T06:07:25.251Z,99.99
2018-08-04T06:08:25.146Z,99.99
2018-08-04T06:09:25.058Z,99.99
2018-08-04T06:10:24.976Z,99.99
2018-08-04T06:11:24.895Z,99.99
2018-08-04T06:12:24.813Z,99.99
2018-08-04T06:13:24.745Z,99.99
2018-08-04T06:14:24.639Z,99.99
2018-08-04T06:15:24.555Z,99.99
2018-08-04T06:16:24.472Z,99.99
2018-08-04T06:17:24.387Z,99.99
2018-08-04T06:18:24.327Z,99.99
2018-08-04T06:19:24.223Z,99.99
2018-08-04T06:20:24.134Z,99.99
2018-08-04T06:21:24.140Z,99.99
2018-08-04T06:22:23.962Z,99.99
2018-08-04T06:23:23.900Z,99.99
2018-08-04T06:24:23.789Z,99.99
2018-08-04T06:25:23.710Z,99.99
2018-08-04T06:26:23.625Z,99.99
2018-08-04T06:27:23.538Z,99.99
2018-08-04T06:28:23.573Z,99.99
2018-08-04T06:29:23.370Z,99.99
2018-08-04T06:30:23.340Z,99.99
2018-08-04T06:31:23.197Z,99.99
2018-08-04T06:32:23.117Z,99.99
2018-08-04T06:33:23.052Z,99.99
2018-08-04T06:34:22.945Z,99.99
2018-08-04T06:35:22.971Z,99.99
2018-08-04T06:36:22.773Z,99.99
2018-08-04T06:37:22.693Z,99.99
2018-08-04T06:38:22.626Z,99.99
2018-08-04T06:39:22.520Z,99.99
2018-08-04T06:40:22.436Z,99.99
2018-08-04T06:41:22.351Z,99.99
2018-08-04T06:42:22.362Z,99.99
2018-08-04T06:43:22.205Z,99.99
2018-08-04T06:44:22.097Z,99.99
2018-08-04T06:45:22.011Z,99.99
2018-08-04T06:46:21.929Z,99.99
2018-08-04T06:47:21.841Z,99.99
2018-08-04T06:48:21.785Z,99.99
2018-08-04T06:49:21.765Z,99.99
2018-08-04T06:50:21.590Z,99.99
2018-08-04T06:51:21.503Z,99.99
2018-08-04T06:52:21.419Z,99.99
2018-08-04T06:53:21.355Z,99.99
2018-08-04T06:54:21.250Z,99.99
2018-08-04T06:55:21.165Z,99.99
2018-08-04T06:56:21.172Z,99.99
2018-08-04T06:57:20.993Z,99.99
2018-08-04T06:58:20.964Z,99.99
2018-08-04T06:59:20.827Z,99.99
2018-08-04T07:00:20.745Z,99.99
2018-08-04T07:01:20.660Z,99.99
2018-08-04T07:02:20.572Z,99.99
2018-08-04T07:03:20.603Z,99.99
2018-08-04T07:04:20.403Z,99.99
2018-08-04T07:05:20.316Z,99.99
2018-08-04T07:06:20.229Z,99.99
2018-08-04T07:07:20.147Z,99.99
2018-08-04T07:08:20.062Z,99.99
2018-08-04T07:09:19.996Z,99.99
2018-08-04T07:10:19.990Z,99.99
2018-08-04T07:11:19.807Z,99.99
2018-08-04T07:12:19.724Z,99.99
2018-08-04T07:13:19.639Z,99.99
2018-08-04T07:14:19.573Z,99.99
2018-08-04T07:15:19.469Z,99.99
2018-08-04T07:16:19.383Z,99.99
2018-08-04T07:17:19.389Z,99.99
2018-08-04T07:18:19.214Z,99.99
2018-08-04T07:19:19.152Z,99.99
2018-08-04T07:20:19.044Z,99.99
2018-08-04T07:21:18.958Z,99.99
2018-08-04T07:22:18.873Z,99.99
2018-08-04T07:23:18.786Z,99.99
2018-08-04T07:24:18.820Z,99.99
2018-08-04T07:25:18.617Z,99.99
2018-08-04T07:26:18.534Z,99.99
2018-08-04T07:27:18.446Z,99.99
2018-08-04T07:28:18.361Z,99.99
2018-08-04T07:29:18.387Z,94.87
2018-08-04T07:30:18.190Z,90.69
2018-08-04T07:31:18.199Z,86.83
2018-08-04T07:32:18.020Z,84.43
2018-08-04T07:33:17.929Z,82.79
2018-08-04T07:34:17.897Z,80.48
2018-08-04T07:35:17.761Z,78.75
2018-08-04T07:36:17.672Z,79.13
2018-08-04T07:37:17.589Z,78.61
2018-08-04T07:38:17.594Z,77.46
2018-08-04T07:39:17.437Z,76.01
2018-08-04T07:40:17.349Z,74.96
2018-08-04T07:41:17.245Z,72.55
2018-08-04T07:42:17.156Z,70.82
2018-08-04T07:43:17.066Z,71.40
2018-08-04T07:44:17.004Z,70.43
2018-08-04T07:45:16.897Z,69.18
2018-08-04T07:46:16.809Z,69.18
2018-08-04T07:47:16.723Z,68.32
2018-08-04T07:48:16.636Z,67.65
2018-08-04T07:49:16.549Z,66.58
2018-08-04T07:50:16.486Z,64.66
2018-08-04T07:51:16.376Z,64.18
2018-08-04T07:52:16.288Z,63.89
2018-08-04T07:53:16.202Z,63.31
2018-08-04T07:54:16.114Z,66.58
2018-08-04T07:55:16.053Z,65.24
2018-08-04T07:56:15.938Z,65.72
2018-08-04T07:57:15.853Z,67.07
2018-08-04T07:58:15.765Z,67.65
2018-08-04T07:59:15.680Z,66.78
2018-08-04T08:00:15.614Z,66.04
2018-08-04T08:01:15.508Z,66.68
2018-08-04T08:02:15.416Z,67.49
2018-08-04T08:03:15.343Z,66.62
2018-08-04T08:04:15.244Z,65.75
2018-08-04T08:05:15.178Z,67.10
2018-08-04T08:06:15.068Z,67.68
2018-08-04T08:07:14.981Z,66.62
2018-08-04T08:08:14.894Z,67.00
2018-08-04T08:09:14.806Z,67.87
2018-08-04T08:10:14.748Z,70.09
2018-08-04T08:11:14.769Z,73.49
2018-08-04T08:12:14.548Z,70.21
2018-08-04T08:13:14.460Z,71.28
2018-08-04T08:14:14.372Z,74.26
2018-08-04T08:15:14.308Z,75.26
2018-08-04T08:16:14.197Z,76.61
2018-08-04T08:17:14.110Z,80.08
2018-08-04T08:18:14.025Z,80.60
2018-08-04T08:19:13.938Z,81.85
2018-08-04T08:20:13.874Z,83.20
2018-08-04T08:21:13.765Z,85.03
2018-08-04T08:22:13.678Z,86.48
2018-08-04T08:23:13.651Z,87.26
2018-08-04T08:24:13.501Z,88.70
2018-08-04T08:25:13.439Z,86.24
2018-08-04T08:26:13.327Z,88.26
2018-08-04T08:27:13.246Z,86.52
2018-08-04T08:28:13.156Z,87.10
2018-08-04T08:29:13.068Z,88.75
2018-08-04T08:30:13.006Z,88.07
2018-08-04T08:31:12.923Z,87.78
2018-08-04T08:32:12.810Z,87.88
2018-08-04T08:33:12.743Z,87.97
2018-08-04T08:34:12.637Z,88.36
2018-08-04T08:35:12.558Z,89.61
2018-08-04T08:36:12.496Z,88.45
2018-08-04T08:37:12.379Z,90.09
2018-08-04T08:38:12.294Z,91.49
2018-08-04T08:39:12.207Z,92.94
2018-08-04T08:40:12.124Z,93.62
2018-08-04T08:41:12.058Z,96.41
2018-08-04T08:42:11.948Z,96.31
2018-08-04T08:43:11.863Z,97.77
2018-08-04T08:44:11.777Z,99.60
2018-08-04T08:45:11.688Z,99.99
2018-08-04T08:46:11.627Z,99.99
2018-08-04T08:47:11.531Z,99.99
2018-08-04T08:48:11.433Z,99.99
2018-08-04T08:49:11.348Z,99.99
2018-08-04T08:50:11.260Z,99.99
2018-08-04T08:51:11.199Z,99.99
2018-08-04T08:52:11.089Z,99.99
2018-08-04T08:53:11.034Z,99.99
2018-08-04T08:54:11.053Z,99.99
2018-08-04T08:55:10.834Z,99.99
2018-08-04T08:56:10.769Z,99.99
2018-08-04T08:57:10.661Z,99.99
2018-08-04T08:58:10.578Z,99.99
2018-08-04T08:59:10.490Z,99.99
2018-08-04T09:00:10.402Z,99.99
2018-08-04T09:01:10.338Z,99.99
2018-08-04T09:02:10.234Z,99.99
2018-08-04T09:03:10.148Z,99.99
2018-08-04T09:04:10.066Z,99.99
2018-08-04T09:05:09.980Z,99.99
2018-08-04T09:06:09.914Z,99.99
2018-08-04T09:07:09.811Z,99.99
2018-08-04T09:08:09.741Z,99.99
2018-08-04T09:09:09.637Z,99.99
2018-08-04T09:10:10.382Z,99.99
2018-08-04T09:11:10.383Z,99.99
2018-08-04T09:12:09.382Z,99.99
2018-08-04T09:13:09.297Z,99.99
2018-08-04T09:14:09.213Z,99.99
2018-08-04T09:15:09.132Z,99.99
2018-08-04T09:16:09.075Z,99.99
2018-08-04T09:17:08.960Z,99.99
2018-08-04T09:18:08.877Z,99.99
2018-08-04T09:19:08.804Z,99.99
2018-08-04T09:20:08.708Z,99.99
2018-08-04T09:21:08.627Z,99.99
2018-08-04T09:22:08.564Z,99.99
2018-08-04T09:23:08.522Z,99.99
2018-08-04T09:24:08.373Z,99.99
2018-08-04T09:25:08.291Z,99.99
2018-08-04T09:26:08.210Z,99.99
2018-08-04T09:27:08.144Z,99.99
2018-08-04T09:28:08.041Z,99.99
2018-08-04T09:29:07.960Z,99.99
2018-08-04T09:30:07.900Z,99.99
2018-08-04T09:31:07.791Z,99.99
2018-08-04T09:32:07.732Z,99.99
2018-08-04T09:33:07.624Z,99.99
2018-08-04T09:34:07.543Z,99.99
2018-08-04T09:35:07.457Z,99.99
2018-08-04T09:36:07.375Z,99.99
2018-08-04T09:37:07.316Z,98.78
2018-08-04T09:38:07.212Z,97.37
2018-08-04T09:39:07.140Z,96.01
2018-08-04T09:40:07.054Z,96.50
2018-08-04T09:41:06.969Z,96.40
2018-08-04T09:42:06.912Z,96.64
2018-08-04T09:43:06.802Z,97.22
2018-08-04T09:44:06.728Z,98.34
2018-08-04T09:45:06.646Z,99.12
2018-08-04T09:46:06.557Z,96.98
2018-08-04T09:47:06.499Z,95.42
2018-08-04T09:48:06.396Z,96.88
2018-08-04T09:49:06.317Z,96.15
2018-08-04T09:50:06.233Z,96.93
2018-08-04T09:51:06.158Z,98.19
2018-08-04T09:52:06.097Z,97.22
2018-08-04T09:53:05.997Z,94.74
2018-08-04T09:54:05.926Z,94.93
2018-08-04T09:55:05.833Z,93.32
2018-08-04T09:56:05.754Z,91.75
2018-08-04T09:57:05.694Z,90.43
2018-08-04T09:58:05.688Z,88.77
2018-08-04T09:59:05.515Z,86.85
2018-08-04T10:00:05.435Z,86.21
2018-08-04T10:01:05.350Z,84.89
2018-08-04T10:02:05.298Z,85.08
2018-08-04T10:03:05.194Z,82.09
2018-08-04T10:04:05.114Z,82.13
2018-08-04T10:05:05.165Z,79.03
2018-08-04T10:06:04.958Z,79.63
2018-08-04T10:07:04.884Z,77.90
2018-08-04T10:08:04.823Z,74.51
2018-08-04T10:09:04.721Z,74.57
2018-08-04T10:10:04.647Z,76.46
2018-08-04T10:11:04.569Z,75.68
2018-08-04T10:12:04.594Z,74.37
2018-08-04T10:13:04.434Z,74.14
2018-08-04T10:14:04.334Z,74.63
2018-08-04T10:15:04.259Z,76.98
2018-08-04T10:16:04.179Z,78.31
2018-08-04T10:17:04.107Z,76.00
2018-08-04T10:18:04.048Z,74.08
2018-08-04T10:19:03.955Z,73.94
2018-08-04T10:20:03.875Z,71.59
2018-08-04T10:21:03.801Z,71.69
2018-08-04T10:22:03.723Z,70.31
2018-08-04T10:23:03.667Z,71.00
2018-08-04T10:24:03.571Z,71.23
2018-08-04T10:25:03.509Z,68.19
2018-08-04T10:26:03.453Z,70.87
2018-08-04T10:27:03.340Z,68.65
2018-08-04T10:28:03.289Z,66.89
2018-08-04T10:29:03.191Z,62.81
2018-08-04T10:30:03.127Z,62.35
2018-08-04T10:31:03.036Z,66.30
2018-08-04T10:32:03.018Z,67.48
2018-08-04T10:33:02.906Z,68.33
2018-08-04T10:34:02.809Z,69.70
2018-08-04T10:35:02.737Z,68.52
2018-08-04T10:36:02.656Z,67.97
2018-08-04T10:37:02.581Z,69.24
2018-08-04T10:38:02.533Z,71.14
2018-08-04T10:39:02.429Z,69.73
2018-08-04T10:40:02.351Z,68.98
2018-08-04T10:41:02.280Z,68.62
2018-08-04T10:42:02.216Z,68.40
2018-08-04T10:43:02.150Z,68.98
2018-08-04T10:44:02.079Z,65.88
2018-08-04T10:45:01.979Z,64.04
2018-08-04T10:46:01.901Z,64.01
2018-08-04T10:47:01.826Z,65.61
2018-08-04T10:48:01.775Z,66.37
2018-08-04T10:49:01.678Z,68.43
2018-08-04T10:50:01.602Z,67.91
2018-08-04T10:51:01.529Z,70.81
2018-08-04T10:52:01.454Z,68.56
2018-08-04T10:53:01.399Z,67.91
2018-08-04T10:54:01.303Z,67.38
2018-08-04T10:55:01.241Z,67.80
2018-08-04T10:56:01.158Z,66.73
2018-08-04T10:57:01.115Z,67.94
2018-08-04T10:58:01.005Z,66.99
2018-08-04T10:59:00.950Z,66.99
2018-08-04T11:00:00.858Z,67.77
2018-08-04T11:01:00.781Z,64.70
2018-08-04T11:02:00.713Z,64.11
2018-08-04T11:03:00.631Z,65.81
2018-08-04T11:04:00.580Z,64.04
2018-08-04T11:05:00.480Z,65.71
2018-08-04T11:06:00.407Z,65.06
2018-08-04T11:07:00.333Z,64.56
2018-08-04T11:08:00.258Z,64.53
2018-08-04T11:09:00.203Z,66.33
2018-08-04T11:10:00.109Z,66.72
2018-08-04T11:11:00.035Z,63.22
2018-08-04T11:11:59.961Z,61.18
2018-08-04T11:12:59.885Z,62.63
2018-08-04T11:13:59.831Z,64.33
2018-08-04T11:14:59.736Z,62.46
2018-08-04T11:15:59.662Z,61.80
2018-08-04T11:16:59.587Z,63.94
2018-08-04T11:17:59.538Z,63.94
2018-08-04T11:18:59.467Z,61.51
2018-08-04T11:19:59.365Z,62.17
2018-08-04T11:20:59.290Z,62.66
2018-08-04T11:21:59.216Z,63.28
2018-08-04T11:22:59.143Z,65.97
2018-08-04T11:23:59.096Z,63.06
2018-08-04T11:24:59.003Z,65.88
2018-08-04T11:25:58.920Z,63.71
2018-08-04T11:26:58.853Z,66.40
2018-08-04T11:27:58.773Z,64.89
2018-08-04T11:28:58.721Z,63.91
2018-08-04T11:29:58.625Z,64.96
2018-08-04T11:30:58.622Z,66.20
2018-08-04T11:31:58.493Z,65.25
2018-08-04T11:32:58.402Z,64.57
2018-08-04T11:33:58.332Z,63.62
2018-08-04T11:34:58.276Z,64.83
2018-08-04T11:35:58.180Z,63.55
2018-08-04T11:36:58.108Z,63.84
2018-08-04T11:37:58.032Z,63.98
2018-08-04T11:38:57.961Z,62.57
2018-08-04T11:39:57.906Z,64.99
2018-08-04T11:40:57.810Z,64.40
2018-08-04T11:41:57.738Z,64.11
2018-08-04T11:42:57.661Z,62.34
2018-08-04T11:43:57.587Z,63.95
2018-08-04T11:44:57.553Z,66.30
2018-08-04T11:45:57.438Z,65.94
2018-08-04T11:46:57.365Z,63.61
2018-08-04T11:47:57.291Z,65.06
2018-08-04T11:48:57.309Z,63.68
2018-08-04T11:49:57.162Z,63.48
2018-08-04T11:50:57.067Z,61.35
2018-08-04T11:51:56.992Z,60.86
2018-08-04T11:52:56.918Z,61.68
2018-08-04T11:53:56.847Z,60.03
2018-08-04T11:54:56.793Z,60.23
2018-08-04T11:55:56.790Z,58.95
2018-08-04T11:56:56.626Z,59.71
2018-08-04T11:57:56.552Z,61.42
2018-08-04T11:58:56.476Z,61.52
2018-08-04T11:59:56.422Z,64.25
2018-08-04T12:00:56.328Z,63.40
2018-08-04T12:01:56.275Z,63.98
2018-08-04T12:02:56.276Z,65.95
2018-08-04T12:03:56.105Z,67.44
2018-08-04T12:04:56.055Z,69.27
2018-08-04T12:05:55.960Z,72.46
2018-08-04T12:06:55.884Z,73.34
2018-08-04T12:07:55.807Z,73.05
2018-08-04T12:08:55.737Z,72.95
2018-08-04T12:09:55.762Z,73.34
2018-08-04T12:10:55.583Z,72.17
2018-08-04T12:11:55.510Z,73.34
2018-08-04T12:12:55.430Z,73.11
2018-08-04T12:13:55.368Z,73.21
2018-08-04T12:14:55.304Z,71.84
2018-08-04T12:15:55.205Z,72.33
2018-08-04T12:16:55.224Z,73.99
2018-08-04T12:17:55.050Z,76.39
2018-08-04T12:18:54.979Z,76.97
2018-08-04T12:19:54.900Z,77.17
2018-08-04T12:20:54.839Z,77.30
2018-08-04T12:21:54.745Z,78.53
2018-08-04T12:22:54.671Z,76.29
2018-08-04T12:23:54.691Z,76.81
2018-08-04T12:24:54.516Z,77.30
2018-08-04T12:25:54.454Z,75.93
2018-08-04T12:26:54.358Z,76.95
2018-08-04T12:27:54.280Z,76.25
2018-08-04T12:28:54.202Z,76.15
2018-08-04T12:29:54.132Z,71.33
2018-08-04T12:30:54.168Z,71.00
2018-08-04T12:31:53.975Z,70.39
2018-08-04T12:32:53.894Z,68.72
2018-08-04T12:33:53.823Z,68.62
2018-08-04T12:34:53.738Z,68.91
2018-08-04T12:35:53.680Z,67.71
2018-08-04T12:36:53.583Z,67.74
2018-08-04T12:37:53.596Z,70.48
2018-08-04T12:38:53.428Z,68.82
2018-08-04T12:39:53.354Z,66.43
2018-08-04T12:40:53.297Z,64.96
2018-08-04T12:41:53.242Z,66.17
2018-08-04T12:42:53.123Z,67.02
2018-08-04T12:43:53.050Z,63.32
2018-08-04T12:44:53.062Z,64.08
2018-08-04T12:45:52.911Z,61.60
2018-08-04T12:46:52.815Z,60.77
2018-08-04T12:47:52.746Z,58.74
2018-08-04T12:48:52.671Z,60.53
2018-08-04T12:49:52.588Z,60.60
2018-08-04T12:50:52.535Z,62.70
2018-08-04T12:51:52.537Z,65.00